Time;durP1;ratioP1;P1;durP2;ratioP2;P2;SDS_P1;SDS_P2;PMS_P1;PMS_P2;Temp;Humidity;BMP_temperature;BMP_pressure;BME280_temperature;BME280_humidity;BME280_pressure;Samples;Min_cycle;Max_cycle;Signal;HPM_P1;HPM_P2
2023/02/11 00:00:46;;;;;;;;;;;21.60;51.70;;;;;;1545203;75;798;-69
2023/02/11 00:02:48;;;;;;;;;;;21.60;52.10;;;;;;1537249;75;1165;-69
2023/02/11 00:04:49;;;;;;;;;;;21.50;52.30;;;;;;1539398;76;673;-71
2023/02/11 00:06:51;;;;;;;;;;;21.50;52.30;;;;;;1545981;76;569;-71
2023/02/11 00:08:53;;;;;;;;;;;21.50;52.40;;;;;;1547685;75;714;-71
2023/02/11 00:10:56;;;;;;;;;;;21.50;52.50;;;;;;1542655;75;685;-72
2023/02/11 00:12:57;;;;;;;;;;;21.50;52.30;;;;;;1541063;76;1937;-71
2023/02/11 00:14:59;;;;;;;;;;;21.60;52.20;;;;;;1538390;75;788;-70
2023/02/11 00:17:01;;;;;;;;;;;21.60;52.20;;;;;;1542668;75;1573;-71
2023/02/11 00:19:05;;;;;;;;;;;21.50;52.20;;;;;;1536456;75;778;-71
2023/02/11 00:21:08;;;;;;;;;;;21.60;52.30;;;;;;1534436;76;1161;-71
2023/02/11 00:23:10;;;;;;;;;;;21.60;52.10;;;;;;1541744;76;1767;-72
2023/02/11 00:25:12;;;;;;;;;;;21.60;52.10;;;;;;1542625;75;747;-71
2023/02/11 00:27:14;;;;;;;;;;;21.60;52.00;;;;;;1541523;76;720;-71
2023/02/11 00:29:16;;;;;;;;;;;21.60;52.00;;;;;;1540548;76;704;-72
2023/02/11 00:31:18;;;;;;;;;;;21.60;52.00;;;;;;1545464;75;1504;-70
2023/02/11 00:33:20;;;;;;;;;;;21.60;52.00;;;;;;1545239;75;1936;-71
2023/02/11 00:35:22;;;;;;;;;;;21.60;52.00;;;;;;1548179;75;670;-71
2023/02/11 00:37:23;;;;;;;;;;;21.60;52.10;;;;;;1534987;75;728;-72
2023/02/11 00:39:25;;;;;;;;;;;21.60;52.00;;;;;;1539715;75;733;-71
2023/02/11 00:41:27;;;;;;;;;;;21.60;52.00;;;;;;1544080;75;1094;-74
2023/02/11 00:43:29;;;;;;;;;;;21.60;52.00;;;;;;1536442;75;755;-71
2023/02/11 00:45:31;;;;;;;;;;;21.60;52.10;;;;;;1542001;76;1481;-70
2023/02/11 00:47:33;;;;;;;;;;;21.60;52.00;;;;;;1540235;75;696;-71
2023/02/11 00:49:35;;;;;;;;;;;21.60;52.00;;;;;;1553005;75;786;-72
2023/02/11 00:51:37;;;;;;;;;;;21.50;52.00;;;;;;1542500;76;1169;-73
2023/02/11 00:53:39;;;;;;;;;;;21.60;52.00;;;;;;1546633;75;1939;-72
2023/02/11 00:55:41;;;;;;;;;;;21.60;52.10;;;;;;1542061;75;687;-73
2023/02/11 00:57:43;;;;;;;;;;;21.60;52.00;;;;;;1542335;76;752;-73
2023/02/11 00:59:45;;;;;;;;;;;21.50;52.10;;;;;;1550872;76;1655;-72
2023/02/11 01:01:47;;;;;;;;;;;21.60;52.10;;;;;;1549936;76;1149;-73
2023/02/11 01:03:48;;;;;;;;;;;21.50;52.10;;;;;;1549199;75;685;-70
2023/02/11 01:05:50;;;;;;;;;;;21.50;52.50;;;;;;1537805;76;672;-70
2023/02/11 01:07:52;;;;;;;;;;;21.50;52.40;;;;;;1543342;75;671;-72
2023/02/11 01:09:54;;;;;;;;;;;21.50;52.50;;;;;;1549323;75;795;-73
2023/02/11 01:11:56;;;;;;;;;;;21.50;52.60;;;;;;1544771;75;1174;-71
2023/02/11 01:13:58;;;;;;;;;;;21.50;52.50;;;;;;1550828;75;1954;-71
2023/02/11 01:16:00;;;;;;;;;;;21.60;52.30;;;;;;1537516;76;797;-70
2023/02/11 01:18:01;;;;;;;;;;;21.50;52.30;;;;;;1552524;76;739;-69
2023/02/11 01:20:05;;;;;;;;;;;21.60;52.20;;;;;;1547573;75;762;-70
2023/02/11 01:22:07;;;;;;;;;;;21.60;52.20;;;;;;1552460;75;1153;-75
2023/02/11 01:24:09;;;;;;;;;;;21.50;52.50;;;;;;1548183;75;699;-71
2023/02/11 01:26:10;;;;;;;;;;;21.50;52.40;;;;;;1542609;76;745;-72
2023/02/11 01:28:16;;;;;;;;;;;21.50;52.40;;;;;;1543464;75;1559;-72
2023/02/11 01:30:18;;;;;;;;;;;21.50;52.40;;;;;;1540393;76;752;-71
2023/02/11 01:32:20;;;;;;;;;;;21.60;52.30;;;;;;1552575;75;1132;-72
2023/02/11 01:34:22;;;;;;;;;;;21.60;52.30;;;;;;1542039;76;1946;-72
2023/02/11 01:36:24;;;;;;;;;;;21.60;52.30;;;;;;1541103;76;707;-75
2023/02/11 01:38:26;;;;;;;;;;;21.50;52.30;;;;;;1535928;76;630;-65
2023/02/11 01:40:28;;;;;;;;;;;21.50;52.50;;;;;;1556253;75;881;-68
2023/02/11 01:42:29;;;;;;;;;;;21.50;52.70;;;;;;1552790;76;1501;-76
2023/02/11 01:44:33;;;;;;;;;;;21.50;52.70;;;;;;1545557;75;795;-74
2023/02/11 01:46:35;;;;;;;;;;;21.50;52.60;;;;;;1539901;76;1554;-75
2023/02/11 01:48:38;;;;;;;;;;;21.50;52.50;;;;;;1545613;76;803;-74
2023/02/11 01:50:40;;;;;;;;;;;21.50;52.30;;;;;;1550175;76;768;-74
2023/02/11 01:52:42;;;;;;;;;;;21.50;52.30;;;;;;1544128;75;1162;-74
2023/02/11 01:59:36;;;;;;;;;;;21.50;52.10;;;;;;1547638;76;1631;-71
2023/02/11 02:01:38;;;;;;;;;;;21.50;52.10;;;;;;1547490;75;1169;-74
2023/02/11 02:03:40;;;;;;;;;;;21.60;52.20;;;;;;1541902;76;755;-76
2023/02/11 02:05:52;;;;;;;;;;;21.50;52.10;;;;;;1543394;76;778;-72
2023/02/11 02:08:02;;;;;;;;;;;21.50;52.20;;;;;;1533918;76;706;-73
2023/02/11 02:10:05;;;;;;;;;;;21.50;52.20;;;;;;1548052;75;1495;-73
2023/02/11 02:12:07;;;;;;;;;;;21.50;52.30;;;;;;1548545;75;1159;-73
2023/02/11 02:14:09;;;;;;;;;;;21.50;52.30;;;;;;1540730;75;1950;-74
2023/02/11 02:16:11;;;;;;;;;;;21.60;52.20;;;;;;1540309;76;763;-70
2023/02/11 02:18:15;;;;;;;;;;;21.50;52.20;;;;;;1541969;75;714;-73
2023/02/11 02:20:21;;;;;;;;;;;21.50;52.20;;;;;;1549175;76;709;-71
2023/02/11 02:22:43;;;;;;;;;;;21.50;52.30;;;;;;1541984;75;1547;-72
2023/02/11 02:25:03;;;;;;;;;;;21.40;52.30;;;;;;1542921;76;1581;-72
2023/02/11 02:27:23;;;;;;;;;;;21.50;52.40;;;;;;1542024;75;699;-71
2023/02/11 02:29:29;;;;;;;;;;;21.50;52.30;;;;;;1541378;76;731;-71
2023/02/11 02:31:50;;;;;;;;;;;21.50;52.30;;;;;;1544237;75;1145;-72
2023/02/11 02:33:53;;;;;;;;;;;21.50;52.30;;;;;;1540832;76;1938;-71
2023/02/11 02:35:59;;;;;;;;;;;21.50;52.30;;;;;;1535297;75;1799;-71
2023/02/11 02:38:08;;;;;;;;;;;21.50;52.30;;;;;;1547155;76;1884;-71
2023/02/11 02:40:18;;;;;;;;;;;21.50;52.30;;;;;;1541222;75;739;-72
2023/02/11 02:42:20;;;;;;;;;;;21.50;52.40;;;;;;1541938;75;1152;-72
2023/02/11 02:44:22;;;;;;;;;;;21.50;52.30;;;;;;1548925;75;711;-71
2023/02/11 02:46:31;;;;;;;;;;;21.50;52.40;;;;;;1536407;76;827;-73
2023/02/11 02:48:38;;;;;;;;;;;21.50;52.40;;;;;;1544989;76;1319;-71
2023/02/11 02:50:37;;;;;;;;;;;21.50;52.50;;;;;;1549943;76;923;-70
2023/02/11 02:52:46;;;;;;;;;;;21.50;52.50;;;;;;1545663;75;1626;-71
2023/02/11 02:55:08;;;;;;;;;;;21.50;52.50;;;;;;1547853;76;1937;-74
2023/02/11 02:57:21;;;;;;;;;;;21.50;52.70;;;;;;1550693;75;1520;-74
2023/02/11 02:59:27;;;;;;;;;;;21.30;52.70;;;;;;1558713;76;1741;-72
2023/02/11 03:01:32;;;;;;;;;;;21.40;52.80;;;;;;1546350;75;1168;-72
2023/02/11 03:03:43;;;;;;;;;;;21.40;52.80;;;;;;1510479;75;940;-72
2023/02/11 03:05:58;;;;;;;;;;;21.40;52.70;;;;;;1544011;76;1541;-72
2023/02/11 03:08:02;;;;;;;;;;;21.40;52.60;;;;;;1550331;75;1563;-72
2023/02/11 03:10:05;;;;;;;;;;;21.40;52.60;;;;;;1545068;75;865;-72
2023/02/11 03:12:07;;;;;;;;;;;21.50;52.60;;;;;;1538220;76;1167;-72
2023/02/11 03:14:10;;;;;;;;;;;21.50;52.60;;;;;;1546639;75;1928;-72
2023/02/11 03:16:13;;;;;;;;;;;21.50;52.60;;;;;;1550164;75;803;-72
2023/02/11 03:18:15;;;;;;;;;;;21.50;52.60;;;;;;1547374;76;705;-72
2023/02/11 03:20:18;;;;;;;;;;;21.50;52.50;;;;;;1545579;76;1493;-74
2023/02/11 03:22:24;;;;;;;;;;;21.40;52.40;;;;;;1545723;75;1150;-71
2023/02/11 03:24:27;;;;;;;;;;;21.50;52.60;;;;;;1545070;75;760;-73
2023/02/11 03:26:31;;;;;;;;;;;21.50;52.60;;;;;;1541792;76;696;-72
2023/02/11 03:28:37;;;;;;;;;;;21.40;52.60;;;;;;1540985;76;796;-72
2023/02/11 03:30:41;;;;;;;;;;;21.40;52.60;;;;;;1542278;75;1888;-72
2023/02/11 03:32:47;;;;;;;;;;;21.40;52.80;;;;;;1540908;74;1852;-71
2023/02/11 03:34:53;;;;;;;;;;;21.40;52.80;;;;;;1538827;75;1938;-73
2023/02/11 03:37:00;;;;;;;;;;;21.40;53.00;;;;;;1545075;76;714;-72
2023/02/11 03:39:01;;;;;;;;;;;21.40;52.90;;;;;;1536239;76;1986;-70
2023/02/11 03:41:04;;;;;;;;;;;21.40;52.80;;;;;;1546552;76;1153;-70
2023/02/11 03:43:21;;;;;;;;;;;21.50;53.00;;;;;;1544168;75;784;-71
2023/02/11 03:45:23;;;;;;;;;;;21.50;53.30;;;;;;1538804;76;695;-72
2023/02/11 03:47:25;;;;;;;;;;;21.40;53.00;;;;;;1539212;76;1429;-72
2023/02/11 03:49:27;;;;;;;;;;;21.40;53.10;;;;;;1546996;76;774;-72
2023/02/11 03:51:29;;;;;;;;;;;21.50;53.00;;;;;;1541556;76;1172;-73
2023/02/11 03:53:31;;;;;;;;;;;21.50;52.90;;;;;;1543581;75;742;-72
2023/02/11 03:55:34;;;;;;;;;;;21.60;52.80;;;;;;1537492;76;1946;-73
2023/02/11 03:57:36;;;;;;;;;;;21.50;52.70;;;;;;1542048;75;887;-72
2023/02/11 03:59:46;;;;;;;;;;;21.50;52.60;;;;;;1539552;76;713;-72
2023/02/11 04:01:47;;;;;;;;;;;21.50;52.70;;;;;;1533496;75;1609;-74
2023/02/11 04:03:49;;;;;;;;;;;21.50;52.80;;;;;;1549401;75;809;-72
2023/02/11 04:05:51;;;;;;;;;;;21.50;52.90;;;;;;1541749;76;727;-72
2023/02/11 04:07:53;;;;;;;;;;;21.50;53.30;;;;;;1557968;76;735;-72
2023/02/11 04:09:55;;;;;;;;;;;21.40;53.10;;;;;;1557929;76;724;-73
2023/02/11 04:11:57;;;;;;;;;;;21.40;53.30;;;;;;1557308;75;1222;-74
2023/02/11 04:13:59;;;;;;;;;;;21.40;53.40;;;;;;1556673;75;1946;-67
2023/02/11 04:16:01;;;;;;;;;;;21.40;53.40;;;;;;1561455;75;1555;-70
2023/02/11 04:18:02;;;;;;;;;;;21.40;53.40;;;;;;1557853;76;784;-67
2023/02/11 04:20:05;;;;;;;;;;;21.40;53.40;;;;;;1552930;76;806;-67
2023/02/11 04:22:07;;;;;;;;;;;21.50;53.20;;;;;;1553184;75;1157;-67
2023/02/11 04:24:09;;;;;;;;;;;21.50;53.10;;;;;;1561216;76;809;-67
2023/02/11 04:26:10;;;;;;;;;;;21.50;53.00;;;;;;1562737;76;718;-67
2023/02/11 04:28:12;;;;;;;;;;;21.50;52.90;;;;;;1559616;75;729;-67
2023/02/11 04:30:14;;;;;;;;;;;21.50;52.90;;;;;;1551668;75;1413;-68
2023/02/11 04:32:16;;;;;;;;;;;21.50;53.00;;;;;;1554787;76;1160;-68
2023/02/11 04:34:18;;;;;;;;;;;21.50;52.90;;;;;;1558903;76;1935;-71
2023/02/11 04:36:20;;;;;;;;;;;21.50;52.80;;;;;;1552035;75;1272;-67
2023/02/11 04:38:23;;;;;;;;;;;21.60;52.80;;;;;;1553563;75;735;-67
2023/02/11 04:40:24;;;;;;;;;;;21.50;52.80;;;;;;1556318;75;724;-69
2023/02/11 04:42:26;;;;;;;;;;;21.50;53.00;;;;;;1551197;76;1145;-66
2023/02/11 04:44:28;;;;;;;;;;;21.40;53.10;;;;;;1557140;75;1357;-67
2023/02/11 04:46:30;;;;;;;;;;;21.40;53.00;;;;;;1560213;75;720;-67
2023/02/11 04:48:33;;;;;;;;;;;21.50;53.00;;;;;;1554798;76;723;-68
2023/02/11 04:50:35;;;;;;;;;;;21.50;53.00;;;;;;1561152;76;849;-67
2023/02/11 04:52:37;;;;;;;;;;;21.50;52.90;;;;;;1557351;75;1169;-67
2023/02/11 04:54:39;;;;;;;;;;;21.50;53.00;;;;;;1553391;75;1939;-67
2023/02/11 04:56:41;;;;;;;;;;;21.50;52.90;;;;;;1554680;75;792;-66
2023/02/11 04:58:43;;;;;;;;;;;21.50;52.80;;;;;;1558666;76;1582;-67
2023/02/11 05:00:45;;;;;;;;;;;21.50;52.80;;;;;;1562216;75;874;-66
2023/02/11 05:02:46;;;;;;;;;;;21.50;52.70;;;;;;1554899;75;1117;-70
2023/02/11 05:04:48;;;;;;;;;;;21.40;52.70;;;;;;1556159;76;858;-68
2023/02/11 05:06:50;;;;;;;;;;;21.40;52.80;;;;;;1563526;76;698;-70
2023/02/11 05:08:52;;;;;;;;;;;21.40;52.80;;;;;;1550139;75;688;-75
2023/02/11 05:10:54;;;;;;;;;;;21.50;53.00;;;;;;1554529;75;601;-75
2023/02/11 05:12:56;;;;;;;;;;;21.40;52.80;;;;;;1551893;76;1538;-76
2023/02/11 05:14:58;;;;;;;;;;;21.50;52.90;;;;;;1555129;75;1920;-74
2023/02/11 05:16:59;;;;;;;;;;;21.50;52.70;;;;;;1555104;76;890;-74
2023/02/11 05:19:01;;;;;;;;;;;21.50;52.70;;;;;;1559118;76;753;-75
2023/02/11 05:21:07;;;;;;;;;;;21.50;52.60;;;;;;1552167;75;1182;-76
2023/02/11 05:23:09;;;;;;;;;;;21.50;52.60;;;;;;1544809;75;781;-76
2023/02/11 05:25:11;;;;;;;;;;;21.50;52.60;;;;;;1543046;76;811;-75
2023/02/11 05:27:13;;;;;;;;;;;21.50;52.50;;;;;;1554034;75;1543;-77
2023/02/11 05:29:15;;;;;;;;;;;21.50;52.60;;;;;;1558870;75;746;-76
2023/02/11 05:31:17;;;;;;;;;;;21.50;52.50;;;;;;1543322;75;1154;-76
2023/02/11 05:33:19;;;;;;;;;;;21.50;52.50;;;;;;1546039;76;903;-76
2023/02/11 05:35:21;;;;;;;;;;;21.50;52.50;;;;;;1542000;75;1924;-76
2023/02/11 05:37:22;;;;;;;;;;;21.50;52.50;;;;;;1541301;76;740;-74
2023/02/11 05:39:24;;;;;;;;;;;21.50;52.50;;;;;;1546247;75;809;-76
2023/02/11 05:41:26;;;;;;;;;;;21.50;52.40;;;;;;1542474;76;1582;-75
2023/02/11 05:43:28;;;;;;;;;;;21.50;52.40;;;;;;1552420;75;757;-75
2023/02/11 05:45:30;;;;;;;;;;;21.50;52.40;;;;;;1541157;76;681;-72
2023/02/11 05:47:32;;;;;;;;;;;21.50;52.60;;;;;;1548120;76;666;-73
2023/02/11 05:49:34;;;;;;;;;;;21.50;52.50;;;;;;1544751;76;768;-72
2023/02/11 05:51:36;;;;;;;;;;;21.50;52.50;;;;;;1552657;75;1177;-74
2023/02/11 05:53:38;;;;;;;;;;;21.50;52.60;;;;;;1549278;75;816;-73
2023/02/11 05:55:40;;;;;;;;;;;21.50;52.60;;;;;;1551762;75;1928;-75
2023/02/11 05:57:41;;;;;;;;;;;21.50;52.70;;;;;;1553085;75;881;-71
2023/02/11 05:59:43;;;;;;;;;;;21.40;53.20;;;;;;1554618;75;794;-70
2023/02/11 06:01:45;;;;;;;;;;;21.30;53.40;;;;;;1553681;75;1164;-66
2023/02/11 06:03:48;;;;;;;;;;;21.30;53.70;;;;;;1534263;75;656;-67
2023/02/11 06:05:50;;;;;;;;;;;21.30;53.50;;;;;;1546280;75;673;-65
2023/02/11 06:07:52;;;;;;;;;;;21.30;53.60;;;;;;1546585;75;769;-66
2023/02/11 06:09:54;;;;;;;;;;;21.30;53.60;;;;;;1539422;75;1414;-66
2023/02/11 06:11:56;;;;;;;;;;;21.30;53.70;;;;;;1535037;75;1150;-66
2023/02/11 06:13:58;;;;;;;;;;;21.30;53.90;;;;;;1539588;75;761;-66
2023/02/11 06:16:00;;;;;;;;;;;21.20;53.80;;;;;;1549169;76;1937;-67
2023/02/11 06:18:02;;;;;;;;;;;21.20;54.00;;;;;;1553476;76;880;-67
2023/02/11 06:20:05;;;;;;;;;;;21.10;54.20;;;;;;1551932;76;750;-66
2023/02/11 06:22:07;;;;;;;;;;;21.10;54.20;;;;;;1550275;75;1524;-66
2023/02/11 06:24:08;;;;;;;;;;;21.10;54.40;;;;;;1554699;75;752;-68
2023/02/11 06:26:12;;;;;;;;;;;21.10;54.90;;;;;;1544669;75;808;-65
2023/02/11 06:28:14;;;;;;;;;;;21.10;54.90;;;;;;1554587;76;963;-65
2023/02/11 06:30:16;;;;;;;;;;;21.10;54.90;;;;;;1552911;75;808;-66
2023/02/11 06:32:18;;;;;;;;;;;21.10;54.80;;;;;;1547250;75;1190;-67
2023/02/11 06:34:19;;;;;;;;;;;21.30;54.70;;;;;;1556848;75;712;-67
2023/02/11 06:36:21;;;;;;;;;;;21.30;54.50;;;;;;1545631;76;1937;-68
2023/02/11 06:38:23;;;;;;;;;;;21.30;54.20;;;;;;1549882;75;791;-66
2023/02/11 06:40:25;;;;;;;;;;;21.40;53.90;;;;;;1551572;75;856;-66
2023/02/11 06:42:27;;;;;;;;;;;21.40;53.70;;;;;;1547797;76;1106;-72
2023/02/11 06:44:29;;;;;;;;;;;21.50;53.40;;;;;;1545931;75;740;-69
2023/02/11 06:46:31;;;;;;;;;;;21.40;53.40;;;;;;1540882;76;969;-68
2023/02/11 06:48:33;;;;;;;;;;;21.40;53.20;;;;;;1541167;76;714;-70
2023/02/11 06:50:35;;;;;;;;;;;21.40;53.20;;;;;;1543627;75;1530;-71
2023/02/11 06:52:36;;;;;;;;;;;21.40;53.20;;;;;;1546943;75;1189;-71
2023/02/11 06:54:38;;;;;;;;;;;21.40;53.20;;;;;;1552453;76;924;-71
2023/02/11 06:56:40;;;;;;;;;;;21.30;53.10;;;;;;1557607;76;1927;-71
2023/02/11 06:58:42;;;;;;;;;;;21.30;53.40;;;;;;1559020;76;763;-71
2023/02/11 07:00:44;;;;;;;;;;;21.20;53.30;;;;;;1550328;75;755;-71
2023/02/11 07:02:46;;;;;;;;;;;21.10;53.50;;;;;;1552744;75;1133;-70
2023/02/11 07:04:48;;;;;;;;;;;21.10;53.50;;;;;;1561940;76;1564;-71
2023/02/11 07:06:50;;;;;;;;;;;21.10;53.70;;;;;;1553736;75;593;-73
2023/02/11 07:08:51;;;;;;;;;;;21.10;53.90;;;;;;1557467;76;680;-68
2023/02/11 07:10:53;;;;;;;;;;;21.00;53.80;;;;;;1538237;75;695;-71
2023/02/11 07:12:55;;;;;;;;;;;21.10;53.90;;;;;;1555632;76;1079;-71
2023/02/11 07:14:57;;;;;;;;;;;21.10;53.90;;;;;;1546005;75;695;-70
2023/02/11 07:16:59;;;;;;;;;;;21.00;53.80;;;;;;1552669;76;1938;-70
2023/02/11 07:19:01;;;;;;;;;;;21.20;53.90;;;;;;1560243;75;1542;-70
2023/02/11 07:21:06;;;;;;;;;;;21.20;53.70;;;;;;1554158;76;1187;-70
2023/02/11 07:23:08;;;;;;;;;;;21.20;53.50;;;;;;1558195;75;714;-68
2023/02/11 07:25:09;;;;;;;;;;;21.20;53.30;;;;;;1556663;76;875;-69
2023/02/11 07:27:11;;;;;;;;;;;21.10;53.20;;;;;;1552679;76;779;-69
2023/02/11 07:29:13;;;;;;;;;;;21.20;53.10;;;;;;1553550;75;1119;-72
2023/02/11 07:31:17;;;;;;;;;;;21.20;52.80;;;;;;1555338;75;1387;-70
2023/02/11 07:33:18;;;;;;;;;;;21.30;52.60;;;;;;1548169;75;2221;-70
2023/02/11 07:35:20;;;;;;;;;;;21.20;52.60;;;;;;1550030;75;1945;-69
2023/02/11 07:37:22;;;;;;;;;;;21.20;52.30;;;;;;1554119;75;1490;-68
2023/02/11 07:39:26;;;;;;;;;;;21.20;52.30;;;;;;1555654;76;1494;-72
2023/02/11 07:41:28;;;;;;;;;;;21.40;52.20;;;;;;1560449;76;1518;-70
2023/02/11 07:43:30;;;;;;;;;;;21.30;52.00;;;;;;1558560;75;1532;-69
2023/02/11 07:45:32;;;;;;;;;;;21.40;52.00;;;;;;1557039;75;1372;-71
2023/02/11 07:47:34;;;;;;;;;;;21.40;52.00;;;;;;1557130;76;1601;-69
2023/02/11 07:49:36;;;;;;;;;;;21.30;51.80;;;;;;1552381;76;1484;-68
2023/02/11 07:51:38;;;;;;;;;;;21.30;51.90;;;;;;1559847;75;1498;-69
2023/02/11 07:53:40;;;;;;;;;;;21.10;52.00;;;;;;1555575;75;1494;-69
2023/02/11 07:55:44;;;;;;;;;;;21.10;52.20;;;;;;1562110;75;1939;-69
2023/02/11 07:57:46;;;;;;;;;;;21.10;52.20;;;;;;1557288;75;1491;-69
2023/02/11 07:59:48;;;;;;;;;;;21.10;52.20;;;;;;1552601;76;1129;-70
2023/02/11 08:01:50;;;;;;;;;;;21.10;52.20;;;;;;1557429;75;1397;-70
2023/02/11 08:03:52;;;;;;;;;;;21.10;52.20;;;;;;1553602;76;1507;-70
2023/02/11 08:05:54;;;;;;;;;;;21.10;52.20;;;;;;1555859;76;1315;-69
2023/02/11 08:07:56;;;;;;;;;;;21.10;52.20;;;;;;1553501;75;1504;-69
2023/02/11 08:09:58;;;;;;;;;;;21.20;52.10;;;;;;1553195;76;1328;-69
2023/02/11 08:12:00;;;;;;;;;;;21.20;52.00;;;;;;1554839;75;1338;-70
2023/02/11 08:14:02;;;;;;;;;;;21.20;51.80;;;;;;1546508;75;694;-69
2023/02/11 08:16:04;;;;;;;;;;;21.20;51.80;;;;;;1556550;76;1946;-71
2023/02/11 08:18:07;;;;;;;;;;;21.20;51.90;;;;;;1558438;76;790;-73
2023/02/11 08:20:09;;;;;;;;;;;21.20;52.00;;;;;;1558322;75;790;-70
2023/02/11 08:22:11;;;;;;;;;;;21.20;52.10;;;;;;1558565;75;1140;-71
2023/02/11 08:24:13;;;;;;;;;;;21.20;51.90;;;;;;1555650;75;825;-69
2023/02/11 08:26:16;;;;;;;;;;;21.30;51.80;;;;;;1556562;76;811;-69
2023/02/11 08:28:18;;;;;;;;;;;21.30;51.60;;;;;;1556980;75;738;-72
2023/02/11 08:30:19;;;;;;;;;;;21.40;51.40;;;;;;1555769;75;1490;-71
2023/02/11 08:32:24;;;;;;;;;;;21.50;51.40;;;;;;1557780;75;1121;-70
2023/02/11 08:34:25;;;;;;;;;;;21.40;51.10;;;;;;1554807;75;1728;-71
2023/02/11 08:36:28;;;;;;;;;;;21.50;51.20;;;;;;1550994;76;1954;-71
2023/02/11 08:38:30;;;;;;;;;;;21.50;51.00;;;;;;1552579;75;1699;-71
2023/02/11 08:40:32;;;;;;;;;;;21.50;51.10;;;;;;1553808;75;728;-71
2023/02/11 08:42:34;;;;;;;;;;;21.50;51.00;;;;;;1559335;76;1117;-71
2023/02/11 08:44:36;;;;;;;;;;;21.50;51.30;;;;;;1544665;75;1709;-71
2023/02/11 08:46:38;;;;;;;;;;;21.30;51.50;;;;;;1554459;75;699;-70
2023/02/11 08:48:40;;;;;;;;;;;21.20;52.50;;;;;;1562668;76;872;-70
2023/02/11 08:50:42;;;;;;;;;;;21.20;52.80;;;;;;1557650;75;786;-70
2023/02/11 08:52:44;;;;;;;;;;;21.10;54.80;;;;;;1557097;75;1192;-70
2023/02/11 08:54:46;;;;;;;;;;;21.10;55.20;;;;;;1558098;75;799;-70
2023/02/11 08:56:49;;;;;;;;;;;21.10;55.60;;;;;;1561436;75;1939;-70
2023/02/11 08:58:51;;;;;;;;;;;21.00;56.40;;;;;;1563494;75;667;-70
2023/02/11 09:00:53;;;;;;;;;;;20.90;56.40;;;;;;1560850;76;702;-70
2023/02/11 09:02:55;;;;;;;;;;;21.00;56.70;;;;;;1557070;75;1203;-68
2023/02/11 09:04:57;;;;;;;;;;;20.90;56.80;;;;;;1561467;76;874;-68
2023/02/11 09:06:59;;;;;;;;;;;21.00;56.90;;;;;;1557819;76;776;-70
2023/02/11 09:09:01;;;;;;;;;;;20.90;56.80;;;;;;1551966;75;776;-68
2023/02/11 09:11:02;;;;;;;;;;;20.90;56.70;;;;;;1545568;75;1578;-68
2023/02/11 09:13:05;;;;;;;;;;;20.90;56.90;;;;;;1553312;76;760;-68
2023/02/11 09:15:07;;;;;;;;;;;20.90;56.50;;;;;;1555361;75;631;-68
2023/02/11 09:17:09;;;;;;;;;;;20.90;56.80;;;;;;1560733;76;1919;-68
2023/02/11 09:19:11;;;;;;;;;;;20.90;57.20;;;;;;1560263;76;755;-67
2023/02/11 09:21:13;;;;;;;;;;;20.90;57.10;;;;;;1556802;76;1165;-68
2023/02/11 09:23:14;;;;;;;;;;;20.90;57.10;;;;;;1554559;75;769;-69
2023/02/11 09:25:16;;;;;;;;;;;20.90;56.90;;;;;;1553544;75;1556;-70
2023/02/11 09:27:18;;;;;;;;;;;20.90;57.00;;;;;;1549425;76;832;-69
2023/02/11 09:29:20;;;;;;;;;;;20.90;56.90;;;;;;1552099;76;743;-68
2023/02/11 09:31:23;;;;;;;;;;;20.90;56.80;;;;;;1559905;76;1152;-69
2023/02/11 09:33:26;;;;;;;;;;;20.80;56.60;;;;;;1559994;75;706;-69
2023/02/11 09:35:27;;;;;;;;;;;20.90;56.60;;;;;;1555236;76;697;-67
2023/02/11 09:37:29;;;;;;;;;;;20.90;56.50;;;;;;1555144;75;1929;-70
2023/02/11 09:39:31;;;;;;;;;;;20.80;56.20;;;;;;1547111;76;1512;-69
2023/02/11 09:41:35;;;;;;;;;;;20.90;56.40;;;;;;1556297;76;1144;-69
2023/02/11 09:43:38;;;;;;;;;;;20.90;56.30;;;;;;1503258;75;1093;-69
2023/02/11 09:45:40;;;;;;;;;;;20.90;56.20;;;;;;1552756;75;1808;-71
2023/02/11 09:47:43;;;;;;;;;;;20.90;56.00;;;;;;1551299;76;808;-69
2023/02/11 09:49:47;;;;;;;;;;;20.90;55.90;;;;;;1555054;75;1004;-69
2023/02/11 09:51:49;;;;;;;;;;;21.00;55.50;;;;;;1556985;75;1857;-70
2023/02/11 09:53:52;;;;;;;;;;;21.00;55.00;;;;;;1551281;75;1515;-70
2023/02/11 09:55:56;;;;;;;;;;;21.20;54.70;;;;;;1560280;75;740;-69
2023/02/11 09:57:58;;;;;;;;;;;21.20;54.40;;;;;;1545595;75;1905;-69
2023/02/11 10:00:00;;;;;;;;;;;21.40;54.10;;;;;;1550676;75;789;-69
2023/02/11 10:02:04;;;;;;;;;;;21.30;53.90;;;;;;1554664;75;1253;-68
2023/02/11 10:04:10;;;;;;;;;;;21.40;53.60;;;;;;1554777;76;796;-69
2023/02/11 10:06:18;;;;;;;;;;;21.40;53.40;;;;;;1547872;75;1911;-68
2023/02/11 10:08:22;;;;;;;;;;;21.40;53.30;;;;;;1554914;75;1395;-68
2023/02/11 10:10:28;;;;;;;;;;;21.40;53.10;;;;;;1551991;75;1624;-68
2023/02/11 10:12:31;;;;;;;;;;;21.40;53.30;;;;;;1555544;75;1158;-67
2023/02/11 10:14:51;;;;;;;;;;;21.30;55.60;;;;;;1548577;75;1541;-67
2023/02/11 10:17:01;;;;;;;;;;;21.10;55.80;;;;;;1561411;75;1925;-68
2023/02/11 10:19:09;;;;;;;;;;;21.10;55.70;;;;;;1557129;76;2170;-67
2023/02/11 10:21:21;;;;;;;;;;;21.10;56.70;;;;;;1560799;75;1665;-70
2023/02/11 10:23:26;;;;;;;;;;;21.10;56.30;;;;;;1557086;76;711;-68
2023/02/11 10:25:30;;;;;;;;;;;21.10;56.70;;;;;;1567853;75;795;-70
2023/02/11 10:27:33;;;;;;;;;;;21.00;56.80;;;;;;1539250;75;1795;-68
2023/02/11 10:29:45;;;;;;;;;;;20.90;57.20;;;;;;1562159;75;790;-68
2023/02/11 10:31:47;;;;;;;;;;;20.90;57.10;;;;;;1546776;75;1176;-68
2023/02/11 10:33:59;;;;;;;;;;;21.00;56.90;;;;;;1544665;76;696;-68
2023/02/11 10:36:01;;;;;;;;;;;20.90;56.80;;;;;;1552746;76;1589;-68
2023/02/11 10:38:03;;;;;;;;;;;20.90;56.80;;;;;;1555437;75;1934;-67
2023/02/11 10:40:06;;;;;;;;;;;20.90;56.80;;;;;;1548810;76;670;-68
2023/02/11 10:42:10;;;;;;;;;;;20.90;56.80;;;;;;1549183;76;1152;-69
2023/02/11 10:44:22;;;;;;;;;;;20.90;56.80;;;;;;1547211;75;840;-69
2023/02/11 10:46:25;;;;;;;;;;;20.90;56.60;;;;;;1515896;77;957;-68
2023/02/11 10:48:40;;;;;;;;;;;20.90;56.60;;;;;;1543085;75;891;-68
2023/02/11 10:50:42;;;;;;;;;;;20.90;56.60;;;;;;1549457;75;1638;-68
2023/02/11 10:52:44;;;;;;;;;;;20.80;56.50;;;;;;1556160;75;1115;-67
2023/02/11 10:55:04;;;;;;;;;;;20.80;56.40;;;;;;1556364;75;759;-68
2023/02/11 10:57:06;;;;;;;;;;;20.80;56.40;;;;;;1549026;76;1920;-68
2023/02/11 10:59:22;;;;;;;;;;;20.80;56.40;;;;;;1553497;76;713;-67
2023/02/11 11:01:25;;;;;;;;;;;20.80;56.30;;;;;;1499886;75;1185;-70
2023/02/11 11:03:29;;;;;;;;;;;20.80;56.30;;;;;;1553840;75;1895;-68
2023/02/11 11:05:35;;;;;;;;;;;20.80;56.20;;;;;;1559425;75;1882;-68
2023/02/11 11:07:37;;;;;;;;;;;20.80;56.10;;;;;;1550020;75;662;-69
2023/02/11 11:09:46;;;;;;;;;;;20.90;56.20;;;;;;1555192;75;739;-70
2023/02/11 11:11:52;;;;;;;;;;;20.90;56.00;;;;;;1552260;76;1126;-68
2023/02/11 11:13:58;;;;;;;;;;;20.90;56.00;;;;;;1550008;75;691;-68
2023/02/11 11:16:07;;;;;;;;;;;20.90;56.00;;;;;;1550219;76;1453;-69
2023/02/11 11:18:13;;;;;;;;;;;20.90;55.90;;;;;;1542584;76;1947;-69
2023/02/11 11:20:19;;;;;;;;;;;20.90;55.80;;;;;;1551575;76;809;-68
2023/02/11 11:22:21;;;;;;;;;;;20.90;55.70;;;;;;1548931;75;1140;-68
2023/02/11 11:24:34;;;;;;;;;;;20.90;55.60;;;;;;1554380;75;734;-69
2023/02/11 11:26:40;;;;;;;;;;;20.90;55.50;;;;;;1551095;76;811;-69
2023/02/11 11:28:43;;;;;;;;;;;20.90;55.40;;;;;;1553890;76;789;-69
2023/02/11 11:30:45;;;;;;;;;;;20.90;55.30;;;;;;1550264;75;735;-70
2023/02/11 11:32:46;;;;;;;;;;;20.90;55.30;;;;;;1551165;75;1480;-70
2023/02/11 11:34:54;;;;;;;;;;;20.90;55.20;;;;;;1551212;76;790;-69
2023/02/11 11:36:56;;;;;;;;;;;20.90;55.20;;;;;;1555531;76;2036;-68
2023/02/11 11:38:58;;;;;;;;;;;20.90;55.20;;;;;;1545728;75;885;-68
2023/02/11 11:41:14;;;;;;;;;;;20.90;55.30;;;;;;1559812;76;729;-69
2023/02/11 11:43:17;;;;;;;;;;;20.90;55.30;;;;;;1554614;75;1154;-67
2023/02/11 11:45:23;;;;;;;;;;;20.90;55.40;;;;;;1557863;75;684;-70
2023/02/11 11:47:27;;;;;;;;;;;20.90;55.50;;;;;;1560291;76;1749;-68
2023/02/11 11:49:29;;;;;;;;;;;20.90;55.50;;;;;;1557709;76;1567;-69
2023/02/11 11:51:31;;;;;;;;;;;20.80;55.40;;;;;;1555503;75;1121;-68
2023/02/11 11:53:37;;;;;;;;;;;20.80;55.40;;;;;;1551169;75;731;-69
2023/02/11 11:55:41;;;;;;;;;;;20.80;55.40;;;;;;1548430;76;801;-69
2023/02/11 11:57:43;;;;;;;;;;;20.80;55.40;;;;;;1552931;75;1915;-69
2023/02/11 11:59:45;;;;;;;;;;;20.80;55.40;;;;;;1553494;75;1583;-70
2023/02/11 12:01:54;;;;;;;;;;;20.80;55.30;;;;;;1543705;75;1150;-69
2023/02/11 12:04:14;;;;;;;;;;;20.80;55.20;;;;;;1538951;75;1633;-69
2023/02/11 12:06:17;;;;;;;;;;;20.90;55.30;;;;;;1557163;75;788;-69
2023/02/11 12:08:37;;;;;;;;;;;20.80;55.10;;;;;;1559573;75;2005;-71
2023/02/11 12:10:44;;;;;;;;;;;20.90;55.10;;;;;;1554152;76;767;-67
2023/02/11 12:12:59;;;;;;;;;;;20.90;54.90;;;;;;1551075;76;1177;-71
2023/02/11 12:15:19;;;;;;;;;;;21.00;54.60;;;;;;1545160;75;1574;-69
2023/02/11 12:17:35;;;;;;;;;;;21.10;54.30;;;;;;1554270;76;1927;-69
2023/02/11 12:19:38;;;;;;;;;;;21.20;54.20;;;;;;1526194;75;1091;-69